RYR9LX LOWW-LDDU
Flight info
| Callsign | RYR9LX |
|---|---|
| Flight time | 1h 2m |
| Altitude | 37000 |
| Route | STEIN DCT NOHAT DCT KOPRY DCT NETKO |
| Aircraft | A320/M-SDE3FGHIRWY/LB1 |
Departure
| Time | 2026-04-23 08:48 |
|---|---|
| Airport | Vienna International Airport (LOWW) |
Arrival
| Time | 2026-04-23 09:51 |
|---|---|
| Airport | Dubrovnik Ruđer Bošković Airport (LDDU) |
| Time | Latitude | Longitude | Altitude | Speed | Heading |
|---|---|---|---|---|---|
| 2026-04-23 08:30 | 48.11955 | 16.55591 | 622 ft | 0 kts | 64° |
| 2026-04-23 08:42 | 48.11948 | 16.55567 | 613 ft | 4 kts | 76° |
| 2026-04-23 08:42 | 48.11946 | 16.55529 | 623 ft | 4 kts | 109° |
| 2026-04-23 08:42 | 48.11960 | 16.55498 | 626 ft | 4 kts | 150° |
| 2026-04-23 08:42 | 48.11983 | 16.55489 | 615 ft | 4 kts | 195° |
| 2026-04-23 08:43 | 48.11990 | 16.55492 | 618 ft | 0 kts | 206° |
| 2026-04-23 08:45 | 48.11971 | 16.55478 | 618 ft | 12 kts | 206° |
| 2026-04-23 08:45 | 48.11884 | 16.55435 | 610 ft | 13 kts | 188° |
| 2026-04-23 08:45 | 48.11807 | 16.55446 | 615 ft | 11 kts | 140° |
| 2026-04-23 08:46 | 48.11767 | 16.55558 | 615 ft | 18 kts | 114° |
| 2026-04-23 08:46 | 48.11714 | 16.55725 | 614 ft | 17 kts | 116° |
| 2026-04-23 08:46 | 48.11668 | 16.55876 | 618 ft | 15 kts | 115° |
| 2026-04-23 08:46 | 48.11623 | 16.56009 | 619 ft | 13 kts | 118° |
| 2026-04-23 08:47 | 48.11585 | 16.56124 | 616 ft | 11 kts | 121° |
| 2026-04-23 08:47 | 48.11537 | 16.56143 | 615 ft | 7 kts | 216° |
| 2026-04-23 08:47 | 48.11508 | 16.56091 | 616 ft | 7 kts | 248° |
| 2026-04-23 08:47 | 48.11494 | 16.55937 | 610 ft | 24 kts | 265° |
| 2026-04-23 08:48 | 48.11543 | 16.55605 | 610 ft | 40 kts | 297° |
| 2026-04-23 08:48 | 48.11750 | 16.54974 | 618 ft | 101 kts | 296° |
| 2026-04-23 08:48 | 48.12121 | 16.53817 | 824 ft | 130 kts | 298° |
| 2026-04-23 08:48 | 48.12168 | 16.52456 | 1503 ft | 142 kts | 257° |
| 2026-04-23 08:49 | 48.11550 | 16.51194 | 2085 ft | 168 kts | 229° |
| 2026-04-23 08:49 | 48.10539 | 16.50064 | 2407 ft | 191 kts | 225° |
| 2026-04-23 08:49 | 48.09389 | 16.48837 | 2651 ft | 216 kts | 223° |
| 2026-04-23 08:49 | 48.08035 | 16.47558 | 2971 ft | 247 kts | 206° |
| 2026-04-23 08:50 | 48.06223 | 16.47303 | 3366 ft | 279 kts | 176° |
| 2026-04-23 08:50 | 48.04260 | 16.47687 | 4109 ft | 288 kts | 174° |
| 2026-04-23 08:50 | 48.02253 | 16.48105 | 4970 ft | 294 kts | 174° |
| 2026-04-23 08:50 | 48.00214 | 16.48525 | 5810 ft | 298 kts | 174° |
| 2026-04-23 08:51 | 47.98138 | 16.48770 | 6650 ft | 301 kts | 184° |
| 2026-04-23 08:51 | 47.96075 | 16.48271 | 7413 ft | 302 kts | 200° |
| 2026-04-23 08:51 | 47.94156 | 16.47008 | 8202 ft | 303 kts | 212° |
| 2026-04-23 08:51 | 47.92277 | 16.45521 | 8985 ft | 308 kts | 211° |
| 2026-04-23 08:52 | 47.90341 | 16.44086 | 9756 ft | 315 kts | 203° |
| 2026-04-23 08:52 | 47.88202 | 16.43233 | 10454 ft | 324 kts | 188° |
| 2026-04-23 08:52 | 47.85876 | 16.43155 | 10673 ft | 346 kts | 172° |
| 2026-04-23 08:52 | 47.83468 | 16.43966 | 10989 ft | 362 kts | 162° |
| 2026-04-23 08:53 | 47.81015 | 16.44981 | 11620 ft | 368 kts | 162° |
| 2026-04-23 08:53 | 47.78524 | 16.45983 | 12344 ft | 372 kts | 162° |
| 2026-04-23 08:53 | 47.76012 | 16.46977 | 13072 ft | 375 kts | 162° |
| 2026-04-23 08:53 | 47.73475 | 16.47969 | 13813 ft | 379 kts | 162° |
| 2026-04-23 08:54 | 47.70916 | 16.48965 | 14456 ft | 382 kts | 162° |
| 2026-04-23 08:54 | 47.68335 | 16.49967 | 15094 ft | 385 kts | 162° |
| 2026-04-23 08:54 | 47.65733 | 16.50984 | 15728 ft | 388 kts | 162° |
| 2026-04-23 08:54 | 47.63115 | 16.52012 | 16360 ft | 391 kts | 162° |
| 2026-04-23 08:55 | 47.60472 | 16.53052 | 16985 ft | 394 kts | 162° |
| 2026-04-23 08:55 | 47.57815 | 16.54097 | 17590 ft | 397 kts | 162° |
| 2026-04-23 08:55 | 47.55140 | 16.55148 | 18211 ft | 400 kts | 162° |
| 2026-04-23 08:55 | 47.52438 | 16.56206 | 18766 ft | 403 kts | 162° |
| 2026-04-23 08:56 | 47.49722 | 16.57265 | 19303 ft | 405 kts | 162° |
| 2026-04-23 08:56 | 47.46987 | 16.58327 | 19844 ft | 408 kts | 162° |
| 2026-04-23 08:56 | 47.44226 | 16.59383 | 20386 ft | 411 kts | 163° |
| 2026-04-23 08:56 | 47.41378 | 16.60010 | 20920 ft | 417 kts | 174° |
| 2026-04-23 08:57 | 47.38464 | 16.60145 | 21456 ft | 421 kts | 175° |
| 2026-04-23 08:57 | 47.35531 | 16.60266 | 21988 ft | 423 kts | 175° |
| 2026-04-23 08:57 | 47.32577 | 16.60398 | 22501 ft | 426 kts | 175° |
| 2026-04-23 08:57 | 47.29604 | 16.60536 | 23007 ft | 429 kts | 175° |
| 2026-04-23 08:58 | 47.26607 | 16.60676 | 23512 ft | 432 kts | 175° |
| 2026-04-23 08:58 | 47.23597 | 16.60815 | 23949 ft | 435 kts | 175° |
| 2026-04-23 08:58 | 47.20566 | 16.60949 | 24349 ft | 437 kts | 175° |
| 2026-04-23 08:58 | 47.17519 | 16.61079 | 24746 ft | 439 kts | 175° |
| 2026-04-23 08:59 | 47.14452 | 16.61209 | 25134 ft | 442 kts | 175° |
| 2026-04-23 08:59 | 47.11370 | 16.61342 | 25499 ft | 444 kts | 174° |
| 2026-04-23 08:59 | 47.08274 | 16.61476 | 25852 ft | 447 kts | 174° |
| 2026-04-23 08:59 | 47.05197 | 16.61608 | 26192 ft | 449 kts | 174° |
| 2026-04-23 09:00 | 47.02065 | 16.61740 | 26540 ft | 452 kts | 174° |
| 2026-04-23 09:00 | 46.98906 | 16.61871 | 26878 ft | 455 kts | 174° |
| 2026-04-23 09:00 | 46.95728 | 16.62007 | 27183 ft | 458 kts | 174° |
| 2026-04-23 09:00 | 46.92532 | 16.62148 | 27503 ft | 461 kts | 174° |
| 2026-04-23 09:01 | 46.89313 | 16.62290 | 27829 ft | 464 kts | 174° |
| 2026-04-23 09:01 | 46.86083 | 16.62431 | 28158 ft | 466 kts | 174° |
| 2026-04-23 09:01 | 46.82849 | 16.62728 | 28468 ft | 465 kts | 168° |
| 2026-04-23 09:01 | 46.79693 | 16.63678 | 28770 ft | 462 kts | 159° |
| 2026-04-23 09:02 | 46.76687 | 16.65261 | 29074 ft | 459 kts | 152° |
| 2026-04-23 09:02 | 46.73727 | 16.67032 | 29389 ft | 461 kts | 152° |
| 2026-04-23 09:02 | 46.70753 | 16.68805 | 29687 ft | 463 kts | 152° |
| 2026-04-23 09:02 | 46.67768 | 16.70577 | 29972 ft | 465 kts | 152° |
| 2026-04-23 09:03 | 46.64766 | 16.72357 | 30240 ft | 467 kts | 152° |
| 2026-04-23 09:03 | 46.61755 | 16.74140 | 30475 ft | 469 kts | 152° |
| 2026-04-23 09:03 | 46.58730 | 16.75929 | 30711 ft | 470 kts | 152° |
| 2026-04-23 09:03 | 46.55693 | 16.77719 | 30959 ft | 471 kts | 152° |
| 2026-04-23 09:04 | 46.52657 | 16.79504 | 31229 ft | 471 kts | 153° |
| 2026-04-23 09:04 | 46.49625 | 16.81284 | 31573 ft | 469 kts | 152° |
| 2026-04-23 09:04 | 46.46607 | 16.83057 | 31887 ft | 468 kts | 152° |
| 2026-04-23 09:04 | 46.43595 | 16.84828 | 32192 ft | 467 kts | 152° |
| 2026-04-23 09:05 | 46.40593 | 16.86592 | 32509 ft | 466 kts | 153° |
| 2026-04-23 09:05 | 46.37592 | 16.88353 | 32815 ft | 465 kts | 153° |
| 2026-04-23 09:05 | 46.34597 | 16.90106 | 33126 ft | 464 kts | 153° |
| 2026-04-23 09:05 | 46.31606 | 16.91852 | 33453 ft | 463 kts | 153° |
| 2026-04-23 09:06 | 46.28628 | 16.93584 | 33800 ft | 460 kts | 153° |
| 2026-04-23 09:06 | 46.25655 | 16.95291 | 34134 ft | 460 kts | 155° |
| 2026-04-23 09:06 | 46.22565 | 16.96575 | 34400 ft | 465 kts | 163° |
| 2026-04-23 09:06 | 46.19364 | 16.97354 | 34662 ft | 467 kts | 166° |
| 2026-04-23 09:07 | 46.16161 | 16.98085 | 34879 ft | 467 kts | 166° |
| 2026-04-23 09:07 | 46.12949 | 16.98819 | 35089 ft | 467 kts | 166° |
| 2026-04-23 09:07 | 46.09736 | 16.99557 | 35307 ft | 467 kts | 166° |
| 2026-04-23 09:07 | 46.06534 | 17.00296 | 35549 ft | 466 kts | 166° |
| 2026-04-23 09:08 | 46.03339 | 17.01034 | 35774 ft | 465 kts | 166° |
| 2026-04-23 09:08 | 46.00144 | 17.01771 | 35984 ft | 465 kts | 166° |
| 2026-04-23 09:08 | 45.96953 | 17.02506 | 36193 ft | 464 kts | 166° |
| 2026-04-23 09:08 | 45.93761 | 17.03236 | 36389 ft | 464 kts | 166° |
| 2026-04-23 09:09 | 45.90575 | 17.03964 | 36573 ft | 464 kts | 166° |
| 2026-04-23 09:09 | 45.87389 | 17.04689 | 36751 ft | 464 kts | 166° |
| 2026-04-23 09:09 | 45.84207 | 17.05414 | 36945 ft | 463 kts | 166° |
| 2026-04-23 09:09 | 45.81021 | 17.06140 | 37125 ft | 463 kts | 166° |
| 2026-04-23 09:10 | 45.71496 | 17.08300 | 37226 ft | 461 kts | 166° |
| 2026-04-23 09:11 | 45.65159 | 17.09732 | 37227 ft | 460 kts | 166° |
| 2026-04-23 09:11 | 45.58849 | 17.11158 | 37227 ft | 459 kts | 166° |
| 2026-04-23 09:12 | 45.52539 | 17.12586 | 37218 ft | 459 kts | 166° |
| 2026-04-23 09:12 | 45.46236 | 17.14007 | 37221 ft | 458 kts | 166° |
| 2026-04-23 09:13 | 45.39937 | 17.15426 | 37217 ft | 459 kts | 166° |
| 2026-04-23 09:13 | 45.33675 | 17.16825 | 37235 ft | 459 kts | 166° |
| 2026-04-23 09:14 | 45.27370 | 17.18232 | 37231 ft | 459 kts | 166° |
| 2026-04-23 09:14 | 45.21065 | 17.19637 | 37254 ft | 458 kts | 166° |
| 2026-04-23 09:15 | 45.14766 | 17.21037 | 37238 ft | 458 kts | 166° |
| 2026-04-23 09:15 | 45.08473 | 17.22432 | 37233 ft | 458 kts | 166° |
| 2026-04-23 09:16 | 45.02173 | 17.23827 | 37244 ft | 458 kts | 166° |
| 2026-04-23 09:16 | 44.95871 | 17.25227 | 37267 ft | 458 kts | 166° |
| 2026-04-23 09:17 | 44.89574 | 17.26608 | 37262 ft | 458 kts | 166° |
| 2026-04-23 09:17 | 44.83288 | 17.27990 | 37265 ft | 457 kts | 166° |
| 2026-04-23 09:18 | 44.76994 | 17.29372 | 37257 ft | 457 kts | 166° |
| 2026-04-23 09:18 | 44.70706 | 17.30754 | 37258 ft | 457 kts | 166° |
| 2026-04-23 09:19 | 44.64421 | 17.32125 | 37242 ft | 457 kts | 166° |
| 2026-04-23 09:19 | 44.58135 | 17.33496 | 37236 ft | 457 kts | 166° |
| 2026-04-23 09:20 | 44.51843 | 17.34867 | 37224 ft | 458 kts | 166° |
| 2026-04-23 09:20 | 44.45548 | 17.36238 | 37224 ft | 458 kts | 166° |
| 2026-04-23 09:21 | 44.39246 | 17.37598 | 37228 ft | 458 kts | 166° |
| 2026-04-23 09:21 | 44.32946 | 17.38955 | 37221 ft | 458 kts | 166° |
| 2026-04-23 09:22 | 44.26648 | 17.40313 | 37234 ft | 458 kts | 166° |
| 2026-04-23 09:22 | 44.20342 | 17.41665 | 37237 ft | 458 kts | 166° |
| 2026-04-23 09:23 | 44.14042 | 17.43012 | 37221 ft | 458 kts | 166° |
| 2026-04-23 09:23 | 44.07735 | 17.44373 | 37211 ft | 459 kts | 166° |
| 2026-04-23 09:24 | 44.01420 | 17.45730 | 37221 ft | 460 kts | 166° |
| 2026-04-23 09:24 | 43.95097 | 17.47078 | 37202 ft | 460 kts | 167° |
| 2026-04-23 09:25 | 43.88771 | 17.48420 | 37202 ft | 460 kts | 167° |
| 2026-04-23 09:25 | 43.85606 | 17.49090 | 37093 ft | 461 kts | 167° |
| 2026-04-23 09:25 | 43.82446 | 17.49763 | 36831 ft | 460 kts | 166° |
| 2026-04-23 09:25 | 43.79280 | 17.50437 | 36284 ft | 459 kts | 166° |
| 2026-04-23 09:26 | 43.76166 | 17.51097 | 35560 ft | 460 kts | 166° |
| 2026-04-23 09:26 | 43.73008 | 17.51766 | 35007 ft | 457 kts | 165° |
| 2026-04-23 09:26 | 43.69879 | 17.52424 | 34440 ft | 454 kts | 164° |
| 2026-04-23 09:26 | 43.67776 | 17.52866 | 34052 ft | 452 kts | 164° |
| 2026-04-23 09:27 | 43.63673 | 17.53727 | 33286 ft | 447 kts | 163° |
| 2026-04-23 09:27 | 43.60614 | 17.54370 | 32731 ft | 443 kts | 164° |
| 2026-04-23 09:27 | 43.57583 | 17.55008 | 32193 ft | 439 kts | 163° |
| 2026-04-23 09:27 | 43.54581 | 17.55640 | 31671 ft | 435 kts | 163° |
| 2026-04-23 09:28 | 43.52563 | 17.56063 | 31310 ft | 433 kts | 163° |
| 2026-04-23 09:28 | 43.49598 | 17.56685 | 30785 ft | 430 kts | 163° |
| 2026-04-23 09:28 | 43.46654 | 17.57307 | 30271 ft | 427 kts | 162° |
| 2026-04-23 09:28 | 43.43728 | 17.57923 | 29701 ft | 423 kts | 163° |
| 2026-04-23 09:29 | 43.40844 | 17.58527 | 29210 ft | 418 kts | 163° |
| 2026-04-23 09:29 | 43.37988 | 17.59124 | 28726 ft | 413 kts | 163° |
| 2026-04-23 09:29 | 43.35160 | 17.59714 | 28253 ft | 409 kts | 163° |
| 2026-04-23 09:29 | 43.32360 | 17.60297 | 27796 ft | 405 kts | 163° |
| 2026-04-23 09:30 | 43.29590 | 17.60870 | 27325 ft | 401 kts | 163° |
| 2026-04-23 09:30 | 43.26845 | 17.61439 | 26899 ft | 397 kts | 163° |
| 2026-04-23 09:30 | 43.24127 | 17.62007 | 26463 ft | 394 kts | 163° |
| 2026-04-23 09:30 | 43.21427 | 17.62573 | 26017 ft | 391 kts | 163° |
| 2026-04-23 09:31 | 43.18773 | 17.63130 | 25565 ft | 389 kts | 163° |
| 2026-04-23 09:31 | 43.16068 | 17.63696 | 25110 ft | 387 kts | 163° |
| 2026-04-23 09:31 | 43.13411 | 17.64248 | 24636 ft | 386 kts | 163° |
| 2026-04-23 09:31 | 43.10792 | 17.64793 | 24172 ft | 385 kts | 163° |
| 2026-04-23 09:32 | 43.08136 | 17.65300 | 23675 ft | 388 kts | 169° |
| 2026-04-23 09:32 | 43.05377 | 17.65215 | 23116 ft | 396 kts | 182° |
| 2026-04-23 09:32 | 43.02722 | 17.64357 | 22669 ft | 401 kts | 195° |
| 2026-04-23 09:32 | 43.00187 | 17.62723 | 22171 ft | 406 kts | 208° |
| 2026-04-23 09:33 | 42.97773 | 17.60622 | 21678 ft | 404 kts | 209° |
| 2026-04-23 09:33 | 42.95408 | 17.58566 | 21204 ft | 402 kts | 209° |
| 2026-04-23 09:33 | 42.93079 | 17.56553 | 20730 ft | 401 kts | 209° |
| 2026-04-23 09:33 | 42.90726 | 17.54527 | 20247 ft | 399 kts | 208° |
| 2026-04-23 09:34 | 42.88304 | 17.52583 | 19738 ft | 398 kts | 206° |
| 2026-04-23 09:34 | 42.85867 | 17.50795 | 19255 ft | 398 kts | 204° |
| 2026-04-23 09:34 | 42.83442 | 17.49109 | 18856 ft | 394 kts | 203° |
| 2026-04-23 09:34 | 42.80945 | 17.47499 | 18297 ft | 387 kts | 194° |
| 2026-04-23 09:35 | 42.78409 | 17.46951 | 18079 ft | 354 kts | 173° |
| 2026-04-23 09:35 | 42.76078 | 17.47506 | 17523 ft | 332 kts | 152° |
| 2026-04-23 09:35 | 42.74170 | 17.49003 | 16958 ft | 311 kts | 132° |
| 2026-04-23 09:35 | 42.72800 | 17.51148 | 16601 ft | 295 kts | 115° |
| 2026-04-23 09:36 | 42.71840 | 17.53583 | 16250 ft | 291 kts | 112° |
| 2026-04-23 09:36 | 42.70899 | 17.56017 | 15913 ft | 290 kts | 112° |
| 2026-04-23 09:36 | 42.69959 | 17.58436 | 15571 ft | 289 kts | 112° |
| 2026-04-23 09:36 | 42.69020 | 17.60849 | 15227 ft | 288 kts | 112° |
| 2026-04-23 09:37 | 42.68083 | 17.63258 | 14881 ft | 288 kts | 112° |
| 2026-04-23 09:37 | 42.67149 | 17.65658 | 14542 ft | 288 kts | 113° |
| 2026-04-23 09:37 | 42.66214 | 17.68060 | 14201 ft | 288 kts | 113° |
| 2026-04-23 09:37 | 42.65276 | 17.70462 | 13847 ft | 288 kts | 113° |
| 2026-04-23 09:38 | 42.64336 | 17.72860 | 13474 ft | 287 kts | 113° |
| 2026-04-23 09:38 | 42.63398 | 17.75253 | 13126 ft | 286 kts | 114° |
| 2026-04-23 09:38 | 42.62465 | 17.77640 | 12747 ft | 286 kts | 114° |
| 2026-04-23 09:38 | 42.61535 | 17.80022 | 12388 ft | 285 kts | 114° |
| 2026-04-23 09:39 | 42.60607 | 17.82394 | 12023 ft | 284 kts | 114° |
| 2026-04-23 09:39 | 42.59677 | 17.84769 | 11592 ft | 286 kts | 114° |
| 2026-04-23 09:39 | 42.58751 | 17.87132 | 11305 ft | 282 kts | 114° |
| 2026-04-23 09:39 | 42.57831 | 17.89483 | 10943 ft | 281 kts | 114° |
| 2026-04-23 09:40 | 42.56916 | 17.91816 | 10586 ft | 280 kts | 115° |
| 2026-04-23 09:40 | 42.55997 | 17.94151 | 10152 ft | 282 kts | 115° |
| 2026-04-23 09:40 | 42.55070 | 17.96504 | 9742 ft | 282 kts | 115° |
| 2026-04-23 09:40 | 42.54146 | 17.98843 | 9353 ft | 280 kts | 115° |
| 2026-04-23 09:41 | 42.53234 | 18.01153 | 8974 ft | 273 kts | 115° |
| 2026-04-23 09:41 | 42.52358 | 18.03368 | 8606 ft | 260 kts | 115° |
| 2026-04-23 09:41 | 42.51523 | 18.05481 | 8257 ft | 248 kts | 115° |
| 2026-04-23 09:41 | 42.50721 | 18.07509 | 7917 ft | 240 kts | 114° |
| 2026-04-23 09:42 | 42.49939 | 18.09490 | 7586 ft | 238 kts | 114° |
| 2026-04-23 09:42 | 42.49163 | 18.11456 | 7242 ft | 237 kts | 114° |
| 2026-04-23 09:42 | 42.48397 | 18.13393 | 6893 ft | 229 kts | 114° |
| 2026-04-23 09:42 | 42.47661 | 18.15262 | 6559 ft | 221 kts | 114° |
| 2026-04-23 09:43 | 42.46952 | 18.17061 | 6238 ft | 213 kts | 114° |
| 2026-04-23 09:43 | 42.46258 | 18.18824 | 5985 ft | 209 kts | 114° |
| 2026-04-23 09:43 | 42.45572 | 18.20566 | 5936 ft | 210 kts | 114° |
| 2026-04-23 09:43 | 42.44881 | 18.22312 | 5848 ft | 211 kts | 114° |
| 2026-04-23 09:44 | 42.44198 | 18.24039 | 5766 ft | 211 kts | 114° |
| 2026-04-23 09:44 | 42.43504 | 18.25793 | 5669 ft | 204 kts | 114° |
| 2026-04-23 09:44 | 42.42856 | 18.27427 | 5585 ft | 192 kts | 114° |
| 2026-04-23 09:44 | 42.42234 | 18.29004 | 5494 ft | 189 kts | 114° |
| 2026-04-23 09:45 | 42.41704 | 18.30598 | 5289 ft | 188 kts | 103° |
| 2026-04-23 09:45 | 42.41441 | 18.32334 | 4977 ft | 184 kts | 91° |
| 2026-04-23 09:45 | 42.41449 | 18.34022 | 4693 ft | 181 kts | 80° |
| 2026-04-23 09:45 | 42.41704 | 18.35673 | 4427 ft | 179 kts | 70° |
| 2026-04-23 09:46 | 42.42191 | 18.37213 | 4162 ft | 178 kts | 59° |
| 2026-04-23 09:46 | 42.42891 | 18.38582 | 3898 ft | 177 kts | 48° |
| 2026-04-23 09:46 | 42.43781 | 18.39732 | 3630 ft | 177 kts | 37° |
| 2026-04-23 09:46 | 42.44821 | 18.40614 | 3373 ft | 177 kts | 26° |
| 2026-04-23 09:47 | 42.45961 | 18.41195 | 3095 ft | 172 kts | 15° |
| 2026-04-23 09:47 | 42.47092 | 18.41450 | 2848 ft | 158 kts | 4° |
| 2026-04-23 09:47 | 42.48154 | 18.41411 | 2633 ft | 149 kts | 354° |
| 2026-04-23 09:47 | 42.49136 | 18.41077 | 2548 ft | 146 kts | 341° |
| 2026-04-23 09:48 | 42.50074 | 18.40443 | 2531 ft | 150 kts | 328° |
| 2026-04-23 09:48 | 42.50869 | 18.39557 | 2454 ft | 148 kts | 316° |
| 2026-04-23 09:48 | 42.51505 | 18.38456 | 2246 ft | 149 kts | 304° |
| 2026-04-23 09:48 | 42.51999 | 18.37227 | 2068 ft | 148 kts | 301° |
| 2026-04-23 09:49 | 42.52490 | 18.35997 | 1832 ft | 149 kts | 300° |
| 2026-04-23 09:49 | 42.52979 | 18.34768 | 1615 ft | 147 kts | 301° |
| 2026-04-23 09:49 | 42.53460 | 18.33563 | 1409 ft | 144 kts | 299° |
| 2026-04-23 09:49 | 42.53937 | 18.32376 | 1210 ft | 143 kts | 300° |
| 2026-04-23 09:50 | 42.54409 | 18.31195 | 1041 ft | 144 kts | 298° |
| 2026-04-23 09:50 | 42.54879 | 18.29988 | 835 ft | 146 kts | 300° |
| 2026-04-23 09:50 | 42.55369 | 18.28769 | 667 ft | 148 kts | 301° |
| 2026-04-23 09:50 | 42.55845 | 18.27568 | 533 ft | 133 kts | 298° |
| 2026-04-23 09:51 | 42.56188 | 18.26700 | 533 ft | 78 kts | 298° |
| 2026-04-23 09:51 | 42.56336 | 18.26325 | 533 ft | 20 kts | 297° |
| 2026-04-23 09:51 | 42.56326 | 18.26204 | 534 ft | 14 kts | 200° |
| 2026-04-23 09:51 | 42.56258 | 18.26230 | 534 ft | 8 kts | 154° |
| 2026-04-23 09:52 | 42.56248 | 18.26235 | 534 ft | 0 kts | 159° |
| 2026-04-23 09:52 | 42.56245 | 18.26237 | 534 ft | 3 kts | 159° |
| 2026-04-23 09:52 | 42.56231 | 18.26242 | 534 ft | 2 kts | 154° |
| 2026-04-23 09:53 | 42.56189 | 18.26271 | 534 ft | 5 kts | 153° |
| 2026-04-23 09:53 | 42.56178 | 18.26263 | 534 ft | 1 kts | 240° |
| 2026-04-23 09:53 | 42.56185 | 18.26229 | 534 ft | 5 kts | 288° |
| 2026-04-23 09:53 | 42.56202 | 18.26187 | 534 ft | 10 kts | 300° |
| 2026-04-23 09:54 | 42.56224 | 18.26131 | 534 ft | 0 kts | 299° |
| 2026-04-23 09:54 | 42.56222 | 18.26136 | 534 ft | 6 kts | 299° |
| 2026-04-23 09:54 | 42.56216 | 18.26145 | 534 ft | 1 kts | 276° |
| 2026-04-23 09:54 | 42.56197 | 18.26127 | 534 ft | 3 kts | 208° |
| 2026-04-23 09:55 | 42.56181 | 18.26115 | 534 ft | 2 kts | 208° |
| 2026-04-23 09:55 | 42.56172 | 18.26109 | 534 ft | 1 kts | 208° |
| 2026-04-23 09:55 | 42.56169 | 18.26106 | 534 ft | 0 kts | 208° |
| 2026-04-23 09:55 | 42.56168 | 18.26105 | 534 ft | 0 kts | 208° |